sensor_id;sensor_type;location;lat;lon;timestamp;P1;durP1;ratioP1;P2;durP2;ratioP2
51927;SDS011;37953;52.806;18.270;2023-12-20T00:02:02;16.35;;;5.80;;
51927;SDS011;37953;52.806;18.270;2023-12-20T00:04:28;8.23;;;4.10;;
51927;SDS011;37953;52.806;18.270;2023-12-20T00:06:54;14.02;;;4.57;;
51927;SDS011;37953;52.806;18.270;2023-12-20T00:09:20;19.88;;;4.63;;
51927;SDS011;37953;52.806;18.270;2023-12-20T00:11:46;14.73;;;4.57;;
51927;SDS011;37953;52.806;18.270;2023-12-20T00:14:12;11.77;;;4.30;;
51927;SDS011;37953;52.806;18.270;2023-12-20T00:16:38;14.85;;;5.30;;
51927;SDS011;37953;52.806;18.270;2023-12-20T00:19:04;11.60;;;4.55;;
51927;SDS011;37953;52.806;18.270;2023-12-20T00:21:30;12.75;;;4.60;;
51927;SDS011;37953;52.806;18.270;2023-12-20T00:23:56;7.43;;;3.65;;
51927;SDS011;37953;52.806;18.270;2023-12-20T00:26:22;6.40;;;3.70;;
51927;SDS011;37953;52.806;18.270;2023-12-20T00:28:48;7.15;;;3.45;;
51927;SDS011;37953;52.806;18.270;2023-12-20T00:31:14;11.02;;;4.07;;
51927;SDS011;37953;52.806;18.270;2023-12-20T00:33:41;15.80;;;3.88;;
51927;SDS011;37953;52.806;18.270;2023-12-20T00:36:09;13.30;;;3.85;;
51927;SDS011;37953;52.806;18.270;2023-12-20T00:38:35;9.73;;;3.20;;
51927;SDS011;37953;52.806;18.270;2023-12-20T00:41:01;14.63;;;3.55;;
51927;SDS011;37953;52.806;18.270;2023-12-20T00:43:27;8.65;;;3.80;;
51927;SDS011;37953;52.806;18.270;2023-12-20T00:45:53;11.75;;;4.00;;
51927;SDS011;37953;52.806;18.270;2023-12-20T00:48:19;8.80;;;3.55;;
51927;SDS011;37953;52.806;18.270;2023-12-20T00:50:48;7.28;;;3.35;;
51927;SDS011;37953;52.806;18.270;2023-12-20T00:53:14;11.35;;;3.80;;
51927;SDS011;37953;52.806;18.270;2023-12-20T00:55:40;9.80;;;3.53;;
51927;SDS011;37953;52.806;18.270;2023-12-20T00:58:06;8.52;;;3.38;;
51927;SDS011;37953;52.806;18.270;2023-12-20T01:00:32;10.68;;;3.83;;
51927;SDS011;37953;52.806;18.270;2023-12-20T01:02:58;14.25;;;3.35;;
51927;SDS011;37953;52.806;18.270;2023-12-20T01:05:24;17.15;;;3.75;;
51927;SDS011;37953;52.806;18.270;2023-12-20T01:07:50;7.78;;;3.28;;
51927;SDS011;37953;52.806;18.270;2023-12-20T01:10:16;8.60;;;3.70;;
51927;SDS011;37953;52.806;18.270;2023-12-20T01:12:43;8.85;;;3.60;;
51927;SDS011;37953;52.806;18.270;2023-12-20T01:15:09;9.95;;;3.30;;
51927;SDS011;37953;52.806;18.270;2023-12-20T01:17:35;6.72;;;3.15;;
51927;SDS011;37953;52.806;18.270;2023-12-20T01:20:01;11.02;;;3.88;;
51927;SDS011;37953;52.806;18.270;2023-12-20T01:22:40;10.10;;;3.67;;
51927;SDS011;37953;52.806;18.270;2023-12-20T01:25:08;11.75;;;3.80;;
51927;SDS011;37953;52.806;18.270;2023-12-20T01:27:34;12.43;;;3.88;;
51927;SDS011;37953;52.806;18.270;2023-12-20T01:30:00;8.95;;;3.38;;
51927;SDS011;37953;52.806;18.270;2023-12-20T01:32:26;7.30;;;3.50;;
51927;SDS011;37953;52.806;18.270;2023-12-20T01:34:52;7.18;;;3.40;;
51927;SDS011;37953;52.806;18.270;2023-12-20T01:37:18;9.20;;;3.65;;
51927;SDS011;37953;52.806;18.270;2023-12-20T01:39:44;9.35;;;3.67;;
51927;SDS011;37953;52.806;18.270;2023-12-20T01:42:10;14.65;;;4.38;;
51927;SDS011;37953;52.806;18.270;2023-12-20T01:44:35;12.23;;;4.00;;
51927;SDS011;37953;52.806;18.270;2023-12-20T01:47:02;18.92;;;3.72;;
51927;SDS011;37953;52.806;18.270;2023-12-20T01:49:27;8.75;;;3.25;;
51927;SDS011;37953;52.806;18.270;2023-12-20T01:51:54;9.32;;;3.42;;
51927;SDS011;37953;52.806;18.270;2023-12-20T01:54:20;7.28;;;3.25;;
51927;SDS011;37953;52.806;18.270;2023-12-20T01:56:48;4.85;;;3.08;;
51927;SDS011;37953;52.806;18.270;2023-12-20T01:59:19;8.30;;;3.20;;
51927;SDS011;37953;52.806;18.270;2023-12-20T02:01:47;8.98;;;3.13;;
51927;SDS011;37953;52.806;18.270;2023-12-20T02:04:13;8.82;;;3.33;;
51927;SDS011;37953;52.806;18.270;2023-12-20T02:06:39;8.07;;;3.25;;
51927;SDS011;37953;52.806;18.270;2023-12-20T02:09:06;10.50;;;3.63;;
51927;SDS011;37953;52.806;18.270;2023-12-20T02:11:33;9.90;;;3.38;;
51927;SDS011;37953;52.806;18.270;2023-12-20T02:14:00;9.63;;;3.10;;
51927;SDS011;37953;52.806;18.270;2023-12-20T02:16:27;11.30;;;3.63;;
51927;SDS011;37953;52.806;18.270;2023-12-20T02:18:53;7.05;;;2.97;;
51927;SDS011;37953;52.806;18.270;2023-12-20T02:21:24;9.35;;;3.35;;
51927;SDS011;37953;52.806;18.270;2023-12-20T02:23:51;8.30;;;3.28;;
51927;SDS011;37953;52.806;18.270;2023-12-20T02:26:17;6.65;;;3.20;;
51927;SDS011;37953;52.806;18.270;2023-12-20T02:28:43;13.55;;;3.78;;
51927;SDS011;37953;52.806;18.270;2023-12-20T02:31:10;7.47;;;3.00;;
51927;SDS011;37953;52.806;18.270;2023-12-20T02:33:36;12.88;;;4.22;;
51927;SDS011;37953;52.806;18.270;2023-12-20T02:36:02;8.68;;;3.33;;
51927;SDS011;37953;52.806;18.270;2023-12-20T02:38:28;9.65;;;2.90;;
51927;SDS011;37953;52.806;18.270;2023-12-20T02:40:54;12.70;;;3.75;;
51927;SDS011;37953;52.806;18.270;2023-12-20T02:43:20;10.02;;;3.25;;
51927;SDS011;37953;52.806;18.270;2023-12-20T02:45:46;9.85;;;3.22;;
51927;SDS011;37953;52.806;18.270;2023-12-20T02:48:12;10.48;;;2.97;;
51927;SDS011;37953;52.806;18.270;2023-12-20T02:50:38;7.97;;;3.33;;
51927;SDS011;37953;52.806;18.270;2023-12-20T02:53:04;17.83;;;3.72;;
51927;SDS011;37953;52.806;18.270;2023-12-20T02:55:30;8.48;;;3.25;;
51927;SDS011;37953;52.806;18.270;2023-12-20T02:57:56;7.32;;;3.15;;
51927;SDS011;37953;52.806;18.270;2023-12-20T03:00:22;8.55;;;3.40;;
51927;SDS011;37953;52.806;18.270;2023-12-20T03:02:48;12.55;;;3.40;;
51927;SDS011;37953;52.806;18.270;2023-12-20T03:05:14;9.30;;;3.20;;
51927;SDS011;37953;52.806;18.270;2023-12-20T03:07:40;18.30;;;3.60;;
51927;SDS011;37953;52.806;18.270;2023-12-20T03:10:08;8.13;;;3.08;;
51927;SDS011;37953;52.806;18.270;2023-12-20T03:12:34;15.27;;;3.63;;
51927;SDS011;37953;52.806;18.270;2023-12-20T03:15:00;9.32;;;3.45;;
51927;SDS011;37953;52.806;18.270;2023-12-20T03:17:26;7.00;;;2.75;;
51927;SDS011;37953;52.806;18.270;2023-12-20T03:19:53;9.38;;;2.70;;
51927;SDS011;37953;52.806;18.270;2023-12-20T03:22:19;5.47;;;2.30;;
51927;SDS011;37953;52.806;18.270;2023-12-20T03:24:45;6.28;;;2.42;;
51927;SDS011;37953;52.806;18.270;2023-12-20T03:27:11;6.68;;;2.45;;
51927;SDS011;37953;52.806;18.270;2023-12-20T03:29:37;7.07;;;2.47;;
51927;SDS011;37953;52.806;18.270;2023-12-20T03:32:03;8.15;;;2.75;;
51927;SDS011;37953;52.806;18.270;2023-12-20T03:34:29;6.45;;;2.60;;
51927;SDS011;37953;52.806;18.270;2023-12-20T03:36:55;7.30;;;2.63;;
51927;SDS011;37953;52.806;18.270;2023-12-20T03:39:21;10.23;;;3.15;;
51927;SDS011;37953;52.806;18.270;2023-12-20T03:41:47;9.55;;;3.05;;
51927;SDS011;37953;52.806;18.270;2023-12-20T03:44:13;7.68;;;2.72;;
51927;SDS011;37953;52.806;18.270;2023-12-20T03:46:39;7.03;;;2.58;;
51927;SDS011;37953;52.806;18.270;2023-12-20T03:49:05;4.93;;;2.35;;
51927;SDS011;37953;52.806;18.270;2023-12-20T03:51:31;7.57;;;2.60;;
51927;SDS011;37953;52.806;18.270;2023-12-20T03:53:57;6.72;;;2.30;;
51927;SDS011;37953;52.806;18.270;2023-12-20T03:56:23;13.10;;;2.85;;
51927;SDS011;37953;52.806;18.270;2023-12-20T03:58:49;5.57;;;2.17;;
51927;SDS011;37953;52.806;18.270;2023-12-20T04:01:15;3.58;;;1.95;;
51927;SDS011;37953;52.806;18.270;2023-12-20T04:03:41;8.68;;;2.70;;
51927;SDS011;37953;52.806;18.270;2023-12-20T04:06:07;4.88;;;2.38;;
51927;SDS011;37953;52.806;18.270;2023-12-20T04:08:34;9.18;;;2.45;;
51927;SDS011;37953;52.806;18.270;2023-12-20T04:11:00;12.73;;;2.97;;
51927;SDS011;37953;52.806;18.270;2023-12-20T04:13:26;4.93;;;2.17;;
51927;SDS011;37953;52.806;18.270;2023-12-20T04:15:51;5.65;;;2.00;;
51927;SDS011;37953;52.806;18.270;2023-12-20T04:18:18;6.25;;;2.15;;
51927;SDS011;37953;52.806;18.270;2023-12-20T04:20:44;5.03;;;2.15;;
51927;SDS011;37953;52.806;18.270;2023-12-20T04:23:11;7.57;;;2.67;;
51927;SDS011;37953;52.806;18.270;2023-12-20T04:25:36;7.55;;;2.70;;
51927;SDS011;37953;52.806;18.270;2023-12-20T04:28:03;7.78;;;2.47;;
51927;SDS011;37953;52.806;18.270;2023-12-20T04:30:29;5.15;;;2.08;;
51927;SDS011;37953;52.806;18.270;2023-12-20T04:32:55;12.32;;;2.35;;
51927;SDS011;37953;52.806;18.270;2023-12-20T04:35:21;11.45;;;2.38;;
51927;SDS011;37953;52.806;18.270;2023-12-20T04:37:47;5.95;;;2.20;;
51927;SDS011;37953;52.806;18.270;2023-12-20T04:40:15;6.28;;;2.40;;
51927;SDS011;37953;52.806;18.270;2023-12-20T04:42:41;8.35;;;2.40;;
51927;SDS011;37953;52.806;18.270;2023-12-20T04:45:10;5.47;;;2.20;;
51927;SDS011;37953;52.806;18.270;2023-12-20T04:47:42;7.38;;;2.33;;
51927;SDS011;37953;52.806;18.270;2023-12-20T04:50:08;13.95;;;3.17;;
51927;SDS011;37953;52.806;18.270;2023-12-20T04:52:35;5.35;;;2.40;;
51927;SDS011;37953;52.806;18.270;2023-12-20T04:55:01;5.93;;;2.45;;
51927;SDS011;37953;52.806;18.270;2023-12-20T04:57:27;6.05;;;2.53;;
51927;SDS011;37953;52.806;18.270;2023-12-20T04:59:53;5.90;;;2.63;;
51927;SDS011;37953;52.806;18.270;2023-12-20T05:02:19;14.07;;;3.58;;
51927;SDS011;37953;52.806;18.270;2023-12-20T05:04:45;7.78;;;2.92;;
51927;SDS011;37953;52.806;18.270;2023-12-20T05:07:11;15.30;;;2.83;;
51927;SDS011;37953;52.806;18.270;2023-12-20T05:09:37;10.60;;;3.08;;
51927;SDS011;37953;52.806;18.270;2023-12-20T05:12:07;8.77;;;2.75;;
51927;SDS011;37953;52.806;18.270;2023-12-20T05:14:33;26.65;;;3.35;;
51927;SDS011;37953;52.806;18.270;2023-12-20T05:16:59;7.00;;;2.65;;
51927;SDS011;37953;52.806;18.270;2023-12-20T05:19:25;8.43;;;2.92;;
51927;SDS011;37953;52.806;18.270;2023-12-20T05:22:04;18.60;;;3.00;;
51927;SDS011;37953;52.806;18.270;2023-12-20T05:24:30;7.32;;;3.38;;
51927;SDS011;37953;52.806;18.270;2023-12-20T05:26:56;11.15;;;3.45;;
51927;SDS011;37953;52.806;18.270;2023-12-20T05:29:23;7.72;;;3.20;;
51927;SDS011;37953;52.806;18.270;2023-12-20T05:31:49;7.68;;;3.00;;
51927;SDS011;37953;52.806;18.270;2023-12-20T05:34:14;7.65;;;3.00;;
51927;SDS011;37953;52.806;18.270;2023-12-20T05:36:41;11.63;;;2.97;;
51927;SDS011;37953;52.806;18.270;2023-12-20T05:39:06;8.45;;;2.83;;
51927;SDS011;37953;52.806;18.270;2023-12-20T05:41:33;9.45;;;3.20;;
51927;SDS011;37953;52.806;18.270;2023-12-20T05:43:59;8.80;;;3.00;;
51927;SDS011;37953;52.806;18.270;2023-12-20T05:46:25;10.63;;;3.10;;
51927;SDS011;37953;52.806;18.270;2023-12-20T05:48:51;9.90;;;4.07;;
51927;SDS011;37953;52.806;18.270;2023-12-20T05:51:17;9.32;;;3.33;;
51927;SDS011;37953;52.806;18.270;2023-12-20T05:53:44;10.68;;;3.35;;
51927;SDS011;37953;52.806;18.270;2023-12-20T05:56:10;16.60;;;3.85;;
51927;SDS011;37953;52.806;18.270;2023-12-20T05:58:36;9.35;;;3.92;;
51927;SDS011;37953;52.806;18.270;2023-12-20T06:01:04;13.02;;;4.10;;
51927;SDS011;37953;52.806;18.270;2023-12-20T06:03:31;15.18;;;4.20;;
51927;SDS011;37953;52.806;18.270;2023-12-20T06:05:57;11.48;;;4.22;;
51927;SDS011;37953;52.806;18.270;2023-12-20T06:08:23;11.35;;;4.10;;
51927;SDS011;37953;52.806;18.270;2023-12-20T06:10:49;13.30;;;3.92;;
51927;SDS011;37953;52.806;18.270;2023-12-20T06:13:15;12.93;;;4.28;;
51927;SDS011;37953;52.806;18.270;2023-12-20T06:15:41;16.63;;;4.88;;
51927;SDS011;37953;52.806;18.270;2023-12-20T06:18:07;9.75;;;4.45;;
51927;SDS011;37953;52.806;18.270;2023-12-20T06:20:33;10.88;;;4.15;;
51927;SDS011;37953;52.806;18.270;2023-12-20T06:22:59;9.73;;;4.32;;
51927;SDS011;37953;52.806;18.270;2023-12-20T06:25:25;9.88;;;4.38;;
51927;SDS011;37953;52.806;18.270;2023-12-20T06:27:51;18.48;;;5.82;;
51927;SDS011;37953;52.806;18.270;2023-12-20T06:30:17;11.75;;;4.90;;
51927;SDS011;37953;52.806;18.270;2023-12-20T06:32:43;13.13;;;5.95;;
51927;SDS011;37953;52.806;18.270;2023-12-20T06:35:09;16.52;;;5.55;;
51927;SDS011;37953;52.806;18.270;2023-12-20T06:37:35;10.07;;;5.72;;
51927;SDS011;37953;52.806;18.270;2023-12-20T06:40:01;13.13;;;5.63;;
51927;SDS011;37953;52.806;18.270;2023-12-20T06:42:27;15.70;;;6.38;;
51927;SDS011;37953;52.806;18.270;2023-12-20T06:44:53;17.08;;;7.15;;
51927;SDS011;37953;52.806;18.270;2023-12-20T06:47:19;14.98;;;5.55;;
51927;SDS011;37953;52.806;18.270;2023-12-20T06:49:45;13.50;;;6.35;;
51927;SDS011;37953;52.806;18.270;2023-12-20T06:52:11;16.33;;;6.45;;
51927;SDS011;37953;52.806;18.270;2023-12-20T06:54:37;14.25;;;6.00;;
51927;SDS011;37953;52.806;18.270;2023-12-20T06:57:03;13.65;;;5.18;;
51927;SDS011;37953;52.806;18.270;2023-12-20T06:59:30;14.30;;;5.35;;
51927;SDS011;37953;52.806;18.270;2023-12-20T07:01:56;10.32;;;4.70;;
51927;SDS011;37953;52.806;18.270;2023-12-20T07:04:22;12.15;;;4.93;;
51927;SDS011;37953;52.806;18.270;2023-12-20T07:06:48;14.40;;;5.57;;
51927;SDS011;37953;52.806;18.270;2023-12-20T07:09:17;13.13;;;5.55;;
51927;SDS011;37953;52.806;18.270;2023-12-20T07:11:43;20.17;;;5.28;;
51927;SDS011;37953;52.806;18.270;2023-12-20T07:14:09;11.52;;;4.85;;
51927;SDS011;37953;52.806;18.270;2023-12-20T07:16:35;12.38;;;5.18;;
51927;SDS011;37953;52.806;18.270;2023-12-20T07:19:02;11.02;;;5.20;;
51927;SDS011;37953;52.806;18.270;2023-12-20T07:21:27;13.18;;;4.90;;
51927;SDS011;37953;52.806;18.270;2023-12-20T07:23:53;9.90;;;4.68;;
51927;SDS011;37953;52.806;18.270;2023-12-20T07:26:19;9.23;;;4.57;;
51927;SDS011;37953;52.806;18.270;2023-12-20T07:28:46;13.18;;;4.80;;
51927;SDS011;37953;52.806;18.270;2023-12-20T07:31:12;12.43;;;4.97;;
51927;SDS011;37953;52.806;18.270;2023-12-20T07:33:41;13.57;;;4.93;;
51927;SDS011;37953;52.806;18.270;2023-12-20T07:36:07;10.23;;;4.57;;
51927;SDS011;37953;52.806;18.270;2023-12-20T07:38:35;15.48;;;4.60;;
51927;SDS011;37953;52.806;18.270;2023-12-20T07:41:01;10.80;;;4.35;;
51927;SDS011;37953;52.806;18.270;2023-12-20T07:43:27;15.35;;;5.63;;
51927;SDS011;37953;52.806;18.270;2023-12-20T07:45:53;22.23;;;5.97;;
51927;SDS011;37953;52.806;18.270;2023-12-20T07:48:19;17.95;;;5.47;;
51927;SDS011;37953;52.806;18.270;2023-12-20T07:50:45;18.40;;;4.68;;
51927;SDS011;37953;52.806;18.270;2023-12-20T07:53:11;15.55;;;5.00;;
51927;SDS011;37953;52.806;18.270;2023-12-20T07:55:38;13.75;;;4.03;;
51927;SDS011;37953;52.806;18.270;2023-12-20T07:58:05;18.35;;;5.00;;
51927;SDS011;37953;52.806;18.270;2023-12-20T08:00:31;13.68;;;4.35;;
51927;SDS011;37953;52.806;18.270;2023-12-20T08:02:57;12.88;;;4.80;;
51927;SDS011;37953;52.806;18.270;2023-12-20T08:05:22;12.07;;;4.60;;
51927;SDS011;37953;52.806;18.270;2023-12-20T08:07:49;10.82;;;4.47;;
51927;SDS011;37953;52.806;18.270;2023-12-20T08:10:15;12.52;;;4.57;;
51927;SDS011;37953;52.806;18.270;2023-12-20T08:12:41;24.27;;;4.45;;
51927;SDS011;37953;52.806;18.270;2023-12-20T08:15:07;18.25;;;5.03;;
51927;SDS011;37953;52.806;18.270;2023-12-20T08:17:33;11.65;;;4.50;;
51927;SDS011;37953;52.806;18.270;2023-12-20T08:19:59;11.60;;;4.30;;
51927;SDS011;37953;52.806;18.270;2023-12-20T08:22:25;10.27;;;4.10;;
51927;SDS011;37953;52.806;18.270;2023-12-20T08:24:51;9.95;;;3.95;;
51927;SDS011;37953;52.806;18.270;2023-12-20T08:27:18;14.85;;;4.35;;
51927;SDS011;37953;52.806;18.270;2023-12-20T08:29:44;11.23;;;4.30;;
51927;SDS011;37953;52.806;18.270;2023-12-20T08:32:11;9.48;;;3.65;;
51927;SDS011;37953;52.806;18.270;2023-12-20T08:34:37;12.40;;;4.28;;
51927;SDS011;37953;52.806;18.270;2023-12-20T08:37:03;14.75;;;3.95;;
51927;SDS011;37953;52.806;18.270;2023-12-20T08:39:29;9.43;;;3.97;;
51927;SDS011;37953;52.806;18.270;2023-12-20T08:41:56;12.95;;;4.50;;
51927;SDS011;37953;52.806;18.270;2023-12-20T08:44:22;16.27;;;5.43;;
51927;SDS011;37953;52.806;18.270;2023-12-20T08:46:48;11.07;;;4.75;;
51927;SDS011;37953;52.806;18.270;2023-12-20T08:49:14;16.25;;;4.95;;
51927;SDS011;37953;52.806;18.270;2023-12-20T08:51:40;18.45;;;4.88;;
51927;SDS011;37953;52.806;18.270;2023-12-20T08:54:07;13.52;;;5.40;;
51927;SDS011;37953;52.806;18.270;2023-12-20T08:56:34;16.75;;;5.82;;
51927;SDS011;37953;52.806;18.270;2023-12-20T08:59:00;16.42;;;6.57;;
51927;SDS011;37953;52.806;18.270;2023-12-20T09:01:26;19.15;;;7.70;;
51927;SDS011;37953;52.806;18.270;2023-12-20T09:03:52;17.30;;;7.40;;
51927;SDS011;37953;52.806;18.270;2023-12-20T09:06:18;25.15;;;9.15;;
51927;SDS011;37953;52.806;18.270;2023-12-20T09:08:44;26.85;;;8.85;;
51927;SDS011;37953;52.806;18.270;2023-12-20T09:11:10;20.48;;;8.13;;
51927;SDS011;37953;52.806;18.270;2023-12-20T09:13:36;19.95;;;7.68;;
51927;SDS011;37953;52.806;18.270;2023-12-20T09:16:03;20.83;;;8.05;;
51927;SDS011;37953;52.806;18.270;2023-12-20T09:18:29;19.58;;;7.32;;
51927;SDS011;37953;52.806;18.270;2023-12-20T09:20:55;14.65;;;6.75;;
51927;SDS011;37953;52.806;18.270;2023-12-20T09:23:21;14.15;;;5.43;;
51927;SDS011;37953;52.806;18.270;2023-12-20T09:25:48;13.68;;;5.05;;
51927;SDS011;37953;52.806;18.270;2023-12-20T09:28:13;14.10;;;5.57;;
51927;SDS011;37953;52.806;18.270;2023-12-20T09:30:39;15.65;;;5.60;;
51927;SDS011;37953;52.806;18.270;2023-12-20T09:33:05;15.48;;;5.82;;
51927;SDS011;37953;52.806;18.270;2023-12-20T09:35:33;16.10;;;5.50;;
51927;SDS011;37953;52.806;18.270;2023-12-20T09:38:01;14.07;;;5.28;;
51927;SDS011;37953;52.806;18.270;2023-12-20T09:40:28;15.75;;;5.50;;
51927;SDS011;37953;52.806;18.270;2023-12-20T09:43:01;21.48;;;6.85;;
51927;SDS011;37953;52.806;18.270;2023-12-20T09:45:30;14.63;;;6.65;;
51927;SDS011;37953;52.806;18.270;2023-12-20T09:47:57;13.57;;;5.53;;
51927;SDS011;37953;52.806;18.270;2023-12-20T09:50:26;14.93;;;4.73;;
51927;SDS011;37953;52.806;18.270;2023-12-20T09:52:53;11.82;;;4.43;;
51927;SDS011;37953;52.806;18.270;2023-12-20T09:55:21;13.60;;;4.60;;
51927;SDS011;37953;52.806;18.270;2023-12-20T09:57:48;14.93;;;5.00;;
51927;SDS011;37953;52.806;18.270;2023-12-20T10:00:15;19.17;;;6.20;;
51927;SDS011;37953;52.806;18.270;2023-12-20T10:02:51;22.38;;;6.43;;
51927;SDS011;37953;52.806;18.270;2023-12-20T10:05:32;17.45;;;6.97;;
51927;SDS011;37953;52.806;18.270;2023-12-20T10:07:59;14.85;;;5.90;;
51927;SDS011;37953;52.806;18.270;2023-12-20T10:10:26;14.85;;;5.85;;
51927;SDS011;37953;52.806;18.270;2023-12-20T10:13:03;18.63;;;5.65;;
51927;SDS011;37953;52.806;18.270;2023-12-20T10:15:34;11.73;;;4.00;;
51927;SDS011;37953;52.806;18.270;2023-12-20T10:18:01;13.90;;;4.25;;
51927;SDS011;37953;52.806;18.270;2023-12-20T10:20:29;31.90;;;4.28;;
51927;SDS011;37953;52.806;18.270;2023-12-20T10:22:56;15.52;;;6.20;;
51927;SDS011;37953;52.806;18.270;2023-12-20T10:25:24;31.02;;;13.20;;
51927;SDS011;37953;52.806;18.270;2023-12-20T10:27:50;15.80;;;6.75;;
51927;SDS011;37953;52.806;18.270;2023-12-20T10:30:44;22.10;;;8.43;;
51927;SDS011;37953;52.806;18.270;2023-12-20T10:33:10;28.02;;;8.50;;
51927;SDS011;37953;52.806;18.270;2023-12-20T10:35:37;17.95;;;7.25;;
51927;SDS011;37953;52.806;18.270;2023-12-20T10:38:09;15.75;;;6.25;;
51927;SDS011;37953;52.806;18.270;2023-12-20T10:40:37;14.18;;;4.90;;
51927;SDS011;37953;52.806;18.270;2023-12-20T10:43:03;11.43;;;4.38;;
51927;SDS011;37953;52.806;18.270;2023-12-20T10:45:31;11.60;;;4.35;;
51927;SDS011;37953;52.806;18.270;2023-12-20T10:47:57;13.35;;;4.60;;
51927;SDS011;37953;52.806;18.270;2023-12-20T10:50:27;13.02;;;4.30;;
51927;SDS011;37953;52.806;18.270;2023-12-20T10:53:00;15.25;;;3.55;;
51927;SDS011;37953;52.806;18.270;2023-12-20T10:55:27;13.07;;;3.33;;
51927;SDS011;37953;52.806;18.270;2023-12-20T11:00:39;19.13;;;3.25;;
51927;SDS011;37953;52.806;18.270;2023-12-20T11:03:10;11.05;;;3.05;;
51927;SDS011;37953;52.806;18.270;2023-12-20T11:08:39;13.35;;;3.63;;
51927;SDS011;37953;52.806;18.270;2023-12-20T11:11:14;19.92;;;3.90;;
51927;SDS011;37953;52.806;18.270;2023-12-20T11:14:02;14.15;;;3.42;;
51927;SDS011;37953;52.806;18.270;2023-12-20T11:16:32;12.73;;;3.80;;
51927;SDS011;37953;52.806;18.270;2023-12-20T11:19:04;17.25;;;4.78;;
51927;SDS011;37953;52.806;18.270;2023-12-20T11:21:31;16.75;;;6.20;;
51927;SDS011;37953;52.806;18.270;2023-12-20T11:23:57;23.60;;;6.15;;
51927;SDS011;37953;52.806;18.270;2023-12-20T11:26:29;20.30;;;4.95;;
51927;SDS011;37953;52.806;18.270;2023-12-20T11:31:49;18.63;;;3.78;;
51927;SDS011;37953;52.806;18.270;2023-12-20T11:34:15;20.08;;;4.40;;
51927;SDS011;37953;52.806;18.270;2023-12-20T11:36:56;13.82;;;6.32;;
51927;SDS011;37953;52.806;18.270;2023-12-20T11:39:26;24.10;;;5.50;;
51927;SDS011;37953;52.806;18.270;2023-12-20T11:41:54;19.67;;;4.15;;
51927;SDS011;37953;52.806;18.270;2023-12-20T11:44:23;18.17;;;4.03;;
51927;SDS011;37953;52.806;18.270;2023-12-20T11:46:52;12.35;;;2.90;;
51927;SDS011;37953;52.806;18.270;2023-12-20T11:49:24;14.88;;;3.17;;
51927;SDS011;37953;52.806;18.270;2023-12-20T11:51:50;17.58;;;3.92;;
51927;SDS011;37953;52.806;18.270;2023-12-20T11:54:17;18.65;;;3.70;;
51927;SDS011;37953;52.806;18.270;2023-12-20T11:56:45;15.63;;;3.45;;
51927;SDS011;37953;52.806;18.270;2023-12-20T11:59:12;12.48;;;2.83;;
51927;SDS011;37953;52.806;18.270;2023-12-20T12:01:48;16.83;;;3.40;;
51927;SDS011;37953;52.806;18.270;2023-12-20T12:04:15;13.38;;;2.83;;
51927;SDS011;37953;52.806;18.270;2023-12-20T12:06:44;29.27;;;4.43;;
51927;SDS011;37953;52.806;18.270;2023-12-20T12:09:17;17.13;;;3.40;;
51927;SDS011;37953;52.806;18.270;2023-12-20T12:11:43;18.58;;;3.35;;
51927;SDS011;37953;52.806;18.270;2023-12-20T12:14:09;15.85;;;3.33;;
51927;SDS011;37953;52.806;18.270;2023-12-20T12:16:36;9.52;;;2.97;;
51927;SDS011;37953;52.806;18.270;2023-12-20T12:19:02;18.85;;;3.38;;
51927;SDS011;37953;52.806;18.270;2023-12-20T12:21:28;16.98;;;4.10;;
51927;SDS011;37953;52.806;18.270;2023-12-20T12:27:26;15.43;;;3.63;;
51927;SDS011;37953;52.806;18.270;2023-12-20T12:30:02;17.00;;;5.05;;
51927;SDS011;37953;52.806;18.270;2023-12-20T12:32:32;13.85;;;4.93;;
51927;SDS011;37953;52.806;18.270;2023-12-20T12:34:58;28.48;;;5.63;;
51927;SDS011;37953;52.806;18.270;2023-12-20T12:37:34;26.00;;;6.72;;
51927;SDS011;37953;52.806;18.270;2023-12-20T12:40:03;19.73;;;7.40;;
51927;SDS011;37953;52.806;18.270;2023-12-20T12:42:31;14.02;;;4.68;;
51927;SDS011;37953;52.806;18.270;2023-12-20T12:44:57;20.45;;;5.07;;
51927;SDS011;37953;52.806;18.270;2023-12-20T12:47:23;17.17;;;4.05;;
51927;SDS011;37953;52.806;18.270;2023-12-20T12:49:49;20.77;;;6.63;;
51927;SDS011;37953;52.806;18.270;2023-12-20T12:52:19;15.07;;;5.35;;
51927;SDS011;37953;52.806;18.270;2023-12-20T12:54:52;18.67;;;5.82;;
51927;SDS011;37953;52.806;18.270;2023-12-20T12:57:19;28.20;;;8.30;;
51927;SDS011;37953;52.806;18.270;2023-12-20T12:59:45;18.63;;;7.78;;
51927;SDS011;37953;52.806;18.270;2023-12-20T13:02:12;19.80;;;7.43;;
51927;SDS011;37953;52.806;18.270;2023-12-20T13:04:39;23.10;;;8.02;;
51927;SDS011;37953;52.806;18.270;2023-12-20T13:07:12;20.00;;;5.68;;
51927;SDS011;37953;52.806;18.270;2023-12-20T13:09:38;21.33;;;8.07;;
51927;SDS011;37953;52.806;18.270;2023-12-20T13:12:05;29.15;;;9.85;;
51927;SDS011;37953;52.806;18.270;2023-12-20T13:14:33;20.65;;;6.85;;
51927;SDS011;37953;52.806;18.270;2023-12-20T13:17:03;20.27;;;6.95;;
51927;SDS011;37953;52.806;18.270;2023-12-20T13:19:29;26.15;;;7.75;;
51927;SDS011;37953;52.806;18.270;2023-12-20T13:22:01;21.20;;;6.00;;
51927;SDS011;37953;52.806;18.270;2023-12-20T13:24:27;21.00;;;6.07;;
51927;SDS011;37953;52.806;18.270;2023-12-20T13:26:55;16.02;;;4.40;;
51927;SDS011;37953;52.806;18.270;2023-12-20T13:29:21;19.13;;;4.03;;
51927;SDS011;37953;52.806;18.270;2023-12-20T13:31:47;11.95;;;4.88;;
51927;SDS011;37953;52.806;18.270;2023-12-20T13:34:13;17.35;;;4.25;;
51927;SDS011;37953;52.806;18.270;2023-12-20T13:36:39;13.95;;;4.03;;
51927;SDS011;37953;52.806;18.270;2023-12-20T13:39:05;20.15;;;5.32;;
51927;SDS011;37953;52.806;18.270;2023-12-20T13:41:32;16.38;;;5.00;;
51927;SDS011;37953;52.806;18.270;2023-12-20T13:43:58;22.33;;;6.00;;
51927;SDS011;37953;52.806;18.270;2023-12-20T13:46:24;19.15;;;4.93;;
51927;SDS011;37953;52.806;18.270;2023-12-20T13:48:50;19.63;;;5.15;;
51927;SDS011;37953;52.806;18.270;2023-12-20T13:51:17;23.10;;;6.28;;
51927;SDS011;37953;52.806;18.270;2023-12-20T13:53:43;16.80;;;5.00;;
51927;SDS011;37953;52.806;18.270;2023-12-20T13:56:09;32.90;;;5.97;;
51927;SDS011;37953;52.806;18.270;2023-12-20T13:58:36;27.88;;;5.70;;
51927;SDS011;37953;52.806;18.270;2023-12-20T14:01:02;16.95;;;4.80;;
51927;SDS011;37953;52.806;18.270;2023-12-20T14:03:34;16.58;;;4.40;;
51927;SDS011;37953;52.806;18.270;2023-12-20T14:06:01;16.20;;;3.95;;
51927;SDS011;37953;52.806;18.270;2023-12-20T14:08:27;15.55;;;3.85;;
51927;SDS011;37953;52.806;18.270;2023-12-20T14:10:53;14.88;;;3.60;;
51927;SDS011;37953;52.806;18.270;2023-12-20T14:13:19;14.52;;;3.85;;
51927;SDS011;37953;52.806;18.270;2023-12-20T14:15:46;16.13;;;3.80;;
51927;SDS011;37953;52.806;18.270;2023-12-20T14:18:14;14.52;;;3.50;;
51927;SDS011;37953;52.806;18.270;2023-12-20T14:20:41;19.83;;;3.08;;
51927;SDS011;37953;52.806;18.270;2023-12-20T14:23:08;17.98;;;3.42;;
51927;SDS011;37953;52.806;18.270;2023-12-20T14:25:41;20.95;;;3.97;;
51927;SDS011;37953;52.806;18.270;2023-12-20T14:28:07;17.08;;;3.75;;
51927;SDS011;37953;52.806;18.270;2023-12-20T14:30:33;17.60;;;3.38;;
51927;SDS011;37953;52.806;18.270;2023-12-20T14:33:02;12.95;;;3.67;;
51927;SDS011;37953;52.806;18.270;2023-12-20T14:35:28;14.60;;;3.13;;
51927;SDS011;37953;52.806;18.270;2023-12-20T14:37:54;14.98;;;3.30;;